AQQ10 IFIS: Internet Flight Information System
logo dgac
Lunes 20 de Septiembre del 2021
Buscar por aerodromo o helipuerto
Ingrese nombre de aeródromo, localidad o designador OACI:
METAR del 20-09-2021 a las 10:00 UTC
Para mayor información visite www.meteochile.cl
METAR SCIC 201000Z AUTO 18009KT 9999 NCD 05/04 Q1022
Viento: dirección 180 grados, velocidad 9 nudos
Visibilidad: 10 km o más
Temperatura: 5 °C
Rocío: 4 °C
Humedad_relativa: 93%
Presión: 1022 hPa
METAR del 20-09-2021 a las 09:00 UTC
Para mayor información visite www.meteochile.cl
METAR SCIC 200900Z AUTO 17008KT 9999 NCD 06/04 Q1022
Viento: dirección 170 grados, velocidad 8 nudos
Visibilidad: 10 km o más
Temperatura: 6 °C
Rocío: 4 °C
Humedad_relativa: 87%
Presión: 1022 hPa
METAR del 20-09-2021 a las 08:00 UTC
Para mayor información visite www.meteochile.cl
METAR SCIC 200800Z AUTO 17005KT 9999 NCD 05/04 Q1022
Viento: dirección 170 grados, velocidad 5 nudos
Visibilidad: 10 km o más
Temperatura: 5 °C
Rocío: 4 °C
Humedad_relativa: 93%
Presión: 1022 hPa
METAR del 20-09-2021 a las 07:00 UTC
Para mayor información visite www.meteochile.cl
METAR SCIC 200700Z AUTO 19004KT 9999 NCD 07/05 Q1022
Viento: dirección 190 grados, velocidad 4 nudos
Visibilidad: 10 km o más
Temperatura: 7 °C
Rocío: 5 °C
Humedad_relativa: 87%
Presión: 1022 hPa
METAR del 20-09-2021 a las 06:00 UTC
Para mayor información visite www.meteochile.cl
METAR SCIC 200600Z AUTO 19005KT 9999 NCD 07/05 Q1022
Viento: dirección 190 grados, velocidad 5 nudos
Visibilidad: 10 km o más
Temperatura: 7 °C
Rocío: 5 °C
Humedad_relativa: 87%
Presión: 1022 hPa
METAR del 20-09-2021 a las 05:00 UTC
Para mayor información visite www.meteochile.cl
METAR SCIC 200500Z AUTO 19004KT 9999 NCD 07/04 Q1022
Viento: dirección 190 grados, velocidad 4 nudos
Visibilidad: 10 km o más
Temperatura: 7 °C
Rocío: 4 °C
Humedad_relativa: 81%
Presión: 1022 hPa
METAR del 20-09-2021 a las 04:00 UTC
Para mayor información visite www.meteochile.cl
METAR SCIC 200400Z AUTO 20004KT 9999 NCD 09/04 Q1022
Viento: dirección 200 grados, velocidad 4 nudos
Visibilidad: 10 km o más
Temperatura: 9 °C
Rocío: 4 °C
Humedad_relativa: 71%
Presión: 1022 hPa
METAR del 20-09-2021 a las 03:00 UTC
Para mayor información visite www.meteochile.cl
METAR SCIC 200300Z AUTO 18003KT 9999 NCD 09/05 Q1022
Viento: dirección 180 grados, velocidad 3 nudos
Visibilidad: 10 km o más
Temperatura: 9 °C
Rocío: 5 °C
Humedad_relativa: 76%
Presión: 1022 hPa
METAR del 20-09-2021 a las 02:00 UTC
Para mayor información visite www.meteochile.cl
METAR SCIC 200200Z AUTO 21005KT 180V240 9999 NCD 11/05 Q1022
Viento: dirección 210 grados, velocidad 5 nudos
Viento con dirección variable entre 180 y 240 grados
Visibilidad: 10 km o más
Temperatura: 11 °C
Rocío: 5 °C
Humedad_relativa: 66%
Presión: 1022 hPa
METAR del 20-09-2021 a las 01:00 UTC
Para mayor información visite www.meteochile.cl
METAR SCIC 200100Z AUTO 18002KT 9999 NCD 11/05 Q1022
Viento: dirección 180 grados, velocidad 2 nudos
Visibilidad: 10 km o más
Temperatura: 11 °C
Rocío: 5 °C
Humedad_relativa: 66%
Presión: 1022 hPa